Time;durP1;ratioP1;P1;durP2;ratioP2;P2;SDS_P1;SDS_P2;PMS_P1;PMS_P2;Temp;Humidity;BMP_temperature;BMP_pressure;BME280_temperature;BME280_humidity;BME280_pressure;Samples;Min_cycle;Max_cycle;Signal;HPM_P1;HPM_P2
2022/04/03 00:01:28;;;;;;;4.47;2.72;;;2.00;99.90;;;;;;5091973;28;20024;-73
2022/04/03 00:03:54;;;;;;;5.18;2.38;;;2.10;99.90;;;;;;5092421;28;20494;-74
2022/04/03 00:06:20;;;;;;;4.00;2.20;;;2.20;99.90;;;;;;5091485;28;20024;-74
2022/04/03 00:08:46;;;;;;;3.00;2.45;;;2.20;99.90;;;;;;5092294;28;20205;-74
2022/04/03 00:11:11;;;;;;;3.35;2.30;;;2.20;99.90;;;;;;5092096;28;20519;-74
2022/04/03 00:13:37;;;;;;;12.00;2.55;;;2.20;99.90;;;;;;5091567;28;20360;-74
2022/04/03 00:16:06;;;;;;;3.05;2.45;;;2.10;99.90;;;;;;5092124;28;20020;-75
2022/04/03 00:18:33;;;;;;;4.97;2.40;;;2.10;99.90;;;;;;5092162;28;20035;-74
2022/04/03 00:20:59;;;;;;;3.28;2.45;;;2.10;99.90;;;;;;5091806;28;20028;-74
2022/04/03 00:23:25;;;;;;;6.22;2.40;;;2.00;99.90;;;;;;5092060;28;20036;-74
2022/04/03 00:25:51;;;;;;;5.68;2.70;;;2.00;99.90;;;;;;5091285;28;20070;-75
2022/04/03 00:28:17;;;;;;;3.60;3.03;;;1.90;99.90;;;;;;5091616;28;20040;-74
2022/04/03 00:30:43;;;;;;;3.63;2.45;;;1.90;99.90;;;;;;5092359;28;20131;-75
2022/04/03 00:33:10;;;;;;;2.88;2.13;;;1.80;99.90;;;;;;5091166;28;20355;-74
2022/04/03 00:35:35;;;;;;;3.42;2.60;;;1.70;99.90;;;;;;5092197;28;20095;-75
2022/04/03 00:38:01;;;;;;;4.03;2.72;;;1.70;99.90;;;;;;5092153;28;20111;-74
2022/04/03 00:40:26;;;;;;;5.65;3.85;;;1.60;99.90;;;;;;5091084;28;20127;-74
2022/04/03 00:42:52;;;;;;;3.35;2.78;;;1.60;99.90;;;;;;5092022;28;20047;-74
2022/04/03 00:45:19;;;;;;;3.65;3.00;;;1.50;99.90;;;;;;5092490;28;20020;-75
2022/04/03 00:47:47;;;;;;;3.08;2.22;;;1.50;99.90;;;;;;5095043;28;20040;-74
2022/04/03 00:50:13;;;;;;;4.20;2.35;;;1.50;99.90;;;;;;5095825;28;20031;-74
2022/04/03 00:52:38;;;;;;;4.43;2.65;;;1.40;99.90;;;;;;5096035;28;20039;-74
2022/04/03 00:55:04;;;;;;;3.90;2.63;;;1.40;99.90;;;;;;5095244;28;20364;-74
2022/04/03 00:57:30;;;;;;;6.18;2.35;;;1.30;99.90;;;;;;5095446;28;20446;-74
2022/04/03 00:59:57;;;;;;;4.07;2.67;;;1.20;99.90;;;;;;5095732;28;20124;-74
2022/04/03 01:02:23;;;;;;;7.25;2.88;;;1.20;99.90;;;;;;5095069;28;20441;-75
2022/04/03 01:04:48;;;;;;;5.15;2.97;;;1.10;99.90;;;;;;5095878;28;20020;-75
2022/04/03 01:07:14;;;;;;;8.85;3.20;;;1.10;99.90;;;;;;5095604;28;20069;-74
2022/04/03 01:09:40;;;;;;;4.82;3.20;;;1.10;99.90;;;;;;5107291;28;20075;-75
2022/04/03 01:12:07;;;;;;;6.20;2.85;;;1.10;99.90;;;;;;5103346;28;20087;-75
2022/04/03 01:14:36;;;;;;;10.57;2.28;;;1.10;99.90;;;;;;5095830;28;20528;-74
2022/04/03 01:17:04;;;;;;;5.47;2.90;;;1.00;99.90;;;;;;5095095;28;20518;-74
2022/04/03 01:19:29;;;;;;;3.15;2.45;;;1.00;99.90;;;;;;5095541;28;20044;-74
2022/04/03 01:21:56;;;;;;;3.63;2.67;;;1.00;99.90;;;;;;5095584;28;20036;-74
2022/04/03 01:24:23;;;;;;;4.40;2.70;;;1.00;99.90;;;;;;5094301;28;20051;-75
2022/04/03 01:26:49;;;;;;;4.78;2.80;;;0.80;99.90;;;;;;5095263;28;20036;-76
2022/04/03 01:29:18;;;;;;;6.32;3.05;;;0.80;99.90;;;;;;5094446;28;20028;-75
2022/04/03 01:31:45;;;;;;;5.65;3.03;;;0.70;99.90;;;;;;5095270;28;20020;-75
2022/04/03 01:34:11;;;;;;;3.65;2.75;;;0.70;99.90;;;;;;5094945;28;20040;-75
2022/04/03 01:36:40;;;;;;;5.38;3.33;;;0.70;99.90;;;;;;5094490;28;20020;-74
2022/04/03 01:39:06;;;;;;;4.68;3.33;;;0.70;99.90;;;;;;5095399;28;20063;-75
2022/04/03 01:41:31;;;;;;;5.72;3.75;;;0.70;99.90;;;;;;5103008;28;20027;-74
2022/04/03 01:43:57;;;;;;;4.38;3.13;;;0.80;99.90;;;;;;5094532;28;20031;-74
2022/04/03 01:46:22;;;;;;;6.22;3.45;;;0.80;99.90;;;;;;5094712;28;20031;-75
2022/04/03 01:48:48;;;;;;;3.45;3.00;;;0.70;99.90;;;;;;5094931;28;20484;-76
2022/04/03 01:51:13;;;;;;;4.22;3.53;;;0.60;99.90;;;;;;5094327;28;20020;-75
2022/04/03 01:53:39;;;;;;;3.92;3.10;;;0.50;99.90;;;;;;5095345;28;20015;-75
2022/04/03 01:56:07;;;;;;;5.25;3.10;;;0.50;99.90;;;;;;5095367;28;20020;-75
2022/04/03 01:58:34;;;;;;;4.85;3.05;;;0.50;99.90;;;;;;5093628;28;20031;-75
2022/04/03 02:01:01;;;;;;;7.68;3.45;;;0.50;99.90;;;;;;5077857;28;20021;-74
2022/04/03 02:03:27;;;;;;;3.92;2.95;;;0.40;99.90;;;;;;5074366;28;20028;-75
2022/04/03 02:05:53;;;;;;;5.43;3.13;;;0.30;99.90;;;;;;5073787;28;20081;-75
2022/04/03 02:08:18;;;;;;;5.75;2.50;;;0.30;99.90;;;;;;5073736;28;20526;-73
2022/04/03 02:10:44;;;;;;;6.22;2.75;;;0.20;99.90;;;;;;5074111;28;20028;-73
2022/04/03 02:13:10;;;;;;;3.05;2.80;;;0.20;99.90;;;;;;5073368;28;20024;-73
2022/04/03 02:15:36;;;;;;;4.97;2.88;;;0.10;99.90;;;;;;5074203;28;20028;-75
2022/04/03 02:18:01;;;;;;;2.85;2.63;;;0.10;99.90;;;;;;5073996;28;20123;-75
2022/04/03 02:20:27;;;;;;;6.43;3.15;;;0.10;99.90;;;;;;5072992;28;20056;-75
2022/04/03 02:22:52;;;;;;;3.72;2.92;;;0.10;99.90;;;;;;5074005;28;20037;-75
2022/04/03 02:25:18;;;;;;;9.13;3.33;;;0.10;99.90;;;;;;5073640;28;20025;-75
2022/04/03 02:27:49;;;;;;;3.55;3.05;;;0.20;99.90;;;;;;5073671;28;20029;-73
2022/04/03 02:30:14;;;;;;;7.43;3.38;;;0.20;99.90;;;;;;5073717;28;20035;-74
2022/04/03 02:32:41;;;;;;;5.22;3.00;;;0.20;99.90;;;;;;5073034;28;20021;-74
2022/04/03 02:35:08;;;;;;;4.35;2.75;;;0.10;99.90;;;;;;5073411;28;20986;-74
2022/04/03 02:37:38;;;;;;;5.75;2.95;;;0.10;99.90;;;;;;5073789;28;20021;-73
2022/04/03 02:40:05;;;;;;;3.25;2.70;;;0.10;99.90;;;;;;5084538;28;20046;-75
2022/04/03 02:42:31;;;;;;;4.20;3.03;;;0.10;99.90;;;;;;5073917;28;20021;-74
2022/04/03 02:44:57;;;;;;;7.20;2.92;;;0.00;99.90;;;;;;5073716;28;20185;-74
2022/04/03 02:47:23;;;;;;;7.05;3.25;;;0.00;99.90;;;;;;5072595;28;20030;-74
2022/04/03 02:49:52;;;;;;;4.15;3.00;;;0.00;99.90;;;;;;5073413;28;20032;-74
2022/04/03 02:52:19;;;;;;;6.30;3.50;;;0.00;99.90;;;;;;5072971;28;20078;-75
2022/04/03 02:54:45;;;;;;;12.73;3.50;;;0.00;99.90;;;;;;5072895;28;20064;-74
2022/04/03 02:57:15;;;;;;;5.53;3.15;;;0.00;99.90;;;;;;5073280;28;20044;-74
2022/04/03 02:59:42;;;;;;;6.20;3.30;;;0.00;99.90;;;;;;5073227;28;20028;-74
2022/04/03 03:02:11;;;;;;;3.75;3.17;;;0.00;99.90;;;;;;5072288;28;20039;-75
2022/04/03 03:04:37;;;;;;;5.90;3.95;;;0.10;99.90;;;;;;5072993;28;20035;-75
2022/04/03 03:07:07;;;;;;;5.28;3.08;;;0.10;99.90;;;;;;5073426;28;20032;-74
2022/04/03 03:09:33;;;;;;;5.72;3.78;;;0.10;99.90;;;;;;5071801;28;20496;-74
2022/04/03 03:12:00;;;;;;;4.85;2.63;;;0.20;99.90;;;;;;5073070;28;20031;-74
2022/04/03 03:14:27;;;;;;;5.60;3.58;;;0.20;99.90;;;;;;5072702;28;20824;-74
2022/04/03 03:16:52;;;;;;;6.13;3.47;;;0.20;99.90;;;;;;5072384;28;20107;-75
2022/04/03 03:19:18;;;;;;;5.82;3.05;;;0.30;99.90;;;;;;5072355;28;20514;-75
2022/04/03 03:21:44;;;;;;;3.72;3.08;;;0.30;99.90;;;;;;5072210;28;20049;-75
2022/04/03 03:24:10;;;;;;;7.22;3.55;;;0.30;99.90;;;;;;5072643;28;20029;-74
2022/04/03 03:26:39;;;;;;;5.47;4.22;;;0.30;99.90;;;;;;5072897;28;20533;-74
2022/04/03 03:29:05;;;;;;;5.10;3.25;;;0.40;99.90;;;;;;5072155;28;20491;-74
2022/04/03 03:31:31;;;;;;;3.38;2.85;;;0.40;99.90;;;;;;5072615;28;20020;-74
2022/04/03 03:33:57;;;;;;;3.80;3.38;;;0.40;99.90;;;;;;5073086;28;20074;-74
2022/04/03 03:36:22;;;;;;;3.78;3.35;;;0.40;99.90;;;;;;5071835;28;20025;-74
2022/04/03 03:38:48;;;;;;;3.47;3.10;;;0.40;99.90;;;;;;5072542;28;20032;-74
2022/04/03 03:41:17;;;;;;;2.67;2.45;;;0.50;99.90;;;;;;5072631;28;20075;-74
2022/04/03 03:43:43;;;;;;;4.10;3.25;;;0.50;99.90;;;;;;5086960;28;20039;-75
2022/04/03 03:46:09;;;;;;;5.10;3.55;;;0.50;99.90;;;;;;5072883;28;20021;-74
2022/04/03 03:48:35;;;;;;;4.65;3.35;;;0.60;99.90;;;;;;5072041;28;20039;-74
2022/04/03 03:51:02;;;;;;;6.07;2.92;;;0.60;99.90;;;;;;5071694;28;20376;-74
2022/04/03 03:53:29;;;;;;;5.72;3.75;;;0.60;99.90;;;;;;5085264;28;20028;-75
2022/04/03 03:55:54;;;;;;;3.80;3.13;;;0.60;99.90;;;;;;5073818;28;20357;-75
2022/04/03 03:58:20;;;;;;;4.68;3.35;;;0.60;99.90;;;;;;5077404;28;20027;-74
2022/04/03 04:00:45;;;;;;;5.85;3.47;;;0.60;99.90;;;;;;5072565;28;20024;-74
2022/04/03 04:03:12;;;;;;;3.50;3.20;;;0.60;99.90;;;;;;5071746;28;20028;-74
2022/04/03 04:05:38;;;;;;;4.95;3.47;;;0.60;99.90;;;;;;5071477;28;20036;-74
2022/04/03 04:08:04;;;;;;;14.13;4.70;;;0.60;99.90;;;;;;5071979;28;20036;-75
2022/04/03 04:10:30;;;;;;;9.10;3.58;;;0.70;99.90;;;;;;5076391;28;20043;-74
2022/04/03 04:12:55;;;;;;;4.45;4.05;;;0.60;99.90;;;;;;5078389;28;20028;-74
2022/04/03 04:15:21;;;;;;;4.50;3.55;;;0.60;99.90;;;;;;5071826;28;20024;-75
2022/04/03 04:17:48;;;;;;;4.30;3.90;;;0.60;99.90;;;;;;5071987;28;20029;-74
2022/04/03 04:20:15;;;;;;;5.00;3.38;;;0.60;99.90;;;;;;5070348;28;20070;-75
2022/04/03 04:22:43;;;;;;;5.90;3.10;;;0.50;99.90;;;;;;5071847;28;20030;-74
2022/04/03 04:25:11;;;;;;;7.03;4.03;;;0.50;99.90;;;;;;5071154;28;20020;-74
2022/04/03 04:27:37;;;;;;;4.40;4.00;;;0.50;99.90;;;;;;5072397;28;20504;-74
2022/04/03 04:30:04;;;;;;;4.82;3.60;;;0.40;99.90;;;;;;5071774;28;20033;-74
2022/04/03 04:32:29;;;;;;;4.55;3.42;;;0.40;99.90;;;;;;5071257;28;20025;-74
2022/04/03 04:34:55;;;;;;;8.88;4.07;;;0.40;99.90;;;;;;5071923;28;20538;-75
2022/04/03 04:37:21;;;;;;;4.20;3.80;;;0.50;99.90;;;;;;5071712;28;20025;-73
2022/04/03 04:39:46;;;;;;;5.93;4.43;;;0.40;99.90;;;;;;5071249;28;20480;-74
2022/04/03 04:42:13;;;;;;;5.30;4.15;;;0.40;99.90;;;;;;5071677;28;20516;-74
2022/04/03 04:44:39;;;;;;;5.57;4.35;;;0.40;99.90;;;;;;5071751;28;20491;-74
2022/04/03 04:47:05;;;;;;;5.15;4.20;;;0.40;99.90;;;;;;5070920;28;20032;-74
2022/04/03 04:49:31;;;;;;;8.10;4.60;;;0.40;99.90;;;;;;5071590;28;20032;-74
2022/04/03 04:51:56;;;;;;;6.45;4.25;;;0.30;99.90;;;;;;5071784;28;20047;-74
2022/04/03 04:54:22;;;;;;;5.85;4.75;;;0.20;99.90;;;;;;5070866;28;20020;-74
2022/04/03 04:56:49;;;;;;;7.00;4.75;;;0.20;99.90;;;;;;5071685;28;20063;-74
2022/04/03 04:59:14;;;;;;;7.07;4.65;;;0.20;99.90;;;;;;5071210;28;20112;-74
2022/04/03 05:01:40;;;;;;;8.40;5.07;;;0.10;99.90;;;;;;5070883;28;20104;-74
2022/04/03 05:04:06;;;;;;;8.30;4.82;;;0.10;99.90;;;;;;5071860;28;20029;-75
2022/04/03 05:06:34;;;;;;;10.02;5.00;;;0.00;99.90;;;;;;5071360;28;20066;-74
2022/04/03 05:08:59;;;;;;;6.90;4.95;;;0.00;99.90;;;;;;5070138;28;20055;-74
2022/04/03 05:11:25;;;;;;;7.45;5.72;;;0.00;99.90;;;;;;5070917;28;20032;-74
2022/04/03 05:13:51;;;;;;;8.32;6.03;;;0.00;99.90;;;;;;5071344;28;20020;-74
2022/04/03 05:16:17;;;;;;;6.60;5.28;;;0.00;99.90;;;;;;5070853;28;20040;-74
2022/04/03 05:18:43;;;;;;;10.27;6.32;;;-0.10;99.90;;;;;;5071540;28;20103;-74
2022/04/03 05:21:10;;;;;;;7.50;6.18;;;-0.10;99.90;;;;;;5070866;28;20419;-74
2022/04/03 05:23:36;;;;;;;9.68;6.80;;;-0.10;99.90;;;;;;5071362;28;20052;-75
2022/04/03 05:26:03;;;;;;;6.22;5.63;;;-0.10;99.90;;;;;;5071274;28;20520;-75
2022/04/03 05:28:29;;;;;;;7.20;6.50;;;-0.20;99.90;;;;;;5070694;28;20395;-76
2022/04/03 05:30:55;;;;;;;7.90;5.93;;;-0.20;99.90;;;;;;5071537;28;20078;-76
2022/04/03 05:33:21;;;;;;;11.00;5.57;;;-0.20;99.90;;;;;;5073436;28;20029;-76
2022/04/03 05:35:46;;;;;;;8.52;5.68;;;-0.20;99.90;;;;;;5074303;28;20107;-76
2022/04/03 05:38:12;;;;;;;10.57;6.10;;;-0.20;99.90;;;;;;5074481;28;20025;-75
2022/04/03 05:40:38;;;;;;;8.65;6.30;;;-0.20;99.90;;;;;;5074931;28;20024;-75
2022/04/03 05:43:04;;;;;;;9.82;5.22;;;-0.10;99.90;;;;;;5076653;28;20024;-76
2022/04/03 05:45:29;;;;;;;5.80;4.80;;;-0.10;99.90;;;;;;5077447;28;20384;-75
2022/04/03 05:47:55;;;;;;;6.07;5.07;;;-0.10;99.90;;;;;;5077259;28;20028;-76
2022/04/03 05:50:21;;;;;;;10.23;5.47;;;0.00;99.90;;;;;;5073432;28;20062;-76
2022/04/03 05:52:49;;;;;;;5.10;4.55;;;0.10;99.90;;;;;;5075298;28;20028;-75
2022/04/03 05:55:17;;;;;;;10.60;4.80;;;0.10;99.90;;;;;;5078070;28;20024;-74
2022/04/03 05:57:43;;;;;;;9.35;5.47;;;0.10;99.90;;;;;;5077361;28;20031;-75
2022/04/03 06:00:12;;;;;;;7.78;5.07;;;0.10;99.90;;;;;;5072927;28;20064;-75
2022/04/03 06:02:48;;;;;;;7.32;4.45;;;0.20;99.90;;;;;;5074705;28;20016;-75
2022/04/03 06:05:16;;;;;;;7.78;4.63;;;0.30;99.90;;;;;;5080547;28;20037;-75
2022/04/03 06:07:42;;;;;;;7.07;4.18;;;0.30;99.90;;;;;;5072765;28;20036;-76
2022/04/03 06:10:08;;;;;;;7.00;4.88;;;0.30;99.90;;;;;;5072364;28;20047;-74
2022/04/03 06:12:35;;;;;;;8.60;4.70;;;0.40;99.90;;;;;;5076718;28;20028;-74
2022/04/03 06:15:01;;;;;;;9.88;5.18;;;0.40;99.90;;;;;;5072199;28;20060;-75
2022/04/03 06:17:27;;;;;;;8.43;6.18;;;0.50;99.90;;;;;;5071938;28;20032;-75
2022/04/03 06:19:53;;;;;;;10.13;7.75;;;0.50;99.90;;;;;;5072629;28;20027;-75
2022/04/03 06:22:18;;;;;;;11.70;7.25;;;0.60;99.90;;;;;;5054764;28;20020;-74
2022/04/03 06:24:44;;;;;;;8.32;6.50;;;0.70;99.90;;;;;;5071959;28;20029;-74
2022/04/03 06:27:13;;;;;;;8.57;5.50;;;0.80;99.90;;;;;;5072569;28;20496;-74
2022/04/03 06:29:38;;;;;;;8.43;4.88;;;0.90;99.90;;;;;;5072088;28;20082;-74
2022/04/03 06:32:04;;;;;;;5.53;4.93;;;0.90;99.90;;;;;;5071333;28;20036;-75
2022/04/03 06:34:30;;;;;;;7.00;4.88;;;1.00;99.90;;;;;;5072617;28;20025;-75
2022/04/03 06:36:55;;;;;;;5.30;4.50;;;1.10;99.90;;;;;;5072964;28;20100;-75
2022/04/03 06:39:21;;;;;;;5.47;4.65;;;1.20;99.90;;;;;;5071162;28;20020;-74
2022/04/03 06:41:47;;;;;;;6.90;4.57;;;1.30;99.90;;;;;;5075225;28;20034;-75
2022/04/03 06:44:12;;;;;;;9.23;4.75;;;1.40;99.90;;;;;;5071601;28;20110;-74
2022/04/03 06:46:38;;;;;;;4.72;4.18;;;1.40;99.90;;;;;;5071537;28;20020;-74
2022/04/03 06:49:03;;;;;;;7.28;4.80;;;1.50;99.90;;;;;;5073169;28;20499;-75
2022/04/03 06:51:29;;;;;;;5.15;4.65;;;1.60;99.90;;;;;;5071633;28;20051;-75
2022/04/03 06:53:55;;;;;;;9.68;5.03;;;1.80;99.90;;;;;;5073796;28;20044;-75
2022/04/03 06:56:20;;;;;;;5.60;4.50;;;1.90;99.90;;;;;;5080172;28;20055;-75
2022/04/03 06:58:46;;;;;;;8.05;5.47;;;2.00;99.90;;;;;;5080230;28;20038;-74
2022/04/03 07:01:11;;;;;;;5.00;4.50;;;2.10;99.90;;;;;;5076114;28;20099;-75
2022/04/03 07:03:37;;;;;;;8.35;5.72;;;2.20;99.90;;;;;;5082680;28;20028;-75
2022/04/03 07:06:03;;;;;;;7.90;4.93;;;2.30;99.90;;;;;;5080037;28;20032;-74
2022/04/03 07:08:32;;;;;;;20.40;8.13;;;2.40;99.90;;;;;;5079109;28;20047;-76
2022/04/03 07:10:57;;;;;;;9.32;7.25;;;2.40;99.90;;;;;;5074519;28;20070;-74
2022/04/03 07:13:23;;;;;;;7.60;5.15;;;2.50;99.90;;;;;;5076979;28;20017;-75
2022/04/03 07:15:51;;;;;;;5.32;4.60;;;2.50;99.90;;;;;;5076021;28;20027;-75
2022/04/03 07:18:17;;;;;;;9.10;4.30;;;2.60;99.90;;;;;;5076120;28;20430;-75
2022/04/03 07:20:46;;;;;;;8.68;4.85;;;2.70;99.90;;;;;;5071537;28;20115;-75
2022/04/03 07:23:12;;;;;;;11.35;5.15;;;2.80;99.90;;;;;;5082885;28;20036;-76
2022/04/03 07:25:37;;;;;;;6.97;4.38;;;3.00;99.90;;;;;;5074338;28;20345;-75
2022/04/03 07:28:03;;;;;;;4.85;3.83;;;3.10;99.90;;;;;;5071349;28;20363;-75
2022/04/03 07:30:29;;;;;;;5.35;4.10;;;3.20;99.90;;;;;;5075180;28;20027;-77
2022/04/03 07:32:55;;;;;;;7.90;4.70;;;3.40;99.90;;;;;;5074139;28;20021;-75
2022/04/03 07:35:20;;;;;;;10.70;4.72;;;3.40;99.90;;;;;;5078892;28;20072;-75
2022/04/03 07:37:46;;;;;;;4.78;4.03;;;3.50;99.90;;;;;;5073659;28;20025;-74
2022/04/03 07:40:12;;;;;;;7.47;4.85;;;3.80;99.90;;;;;;5070293;28;20170;-74
2022/04/03 07:42:39;;;;;;;6.55;3.35;;;3.90;99.90;;;;;;5071883;28;20024;-73
2022/04/03 07:45:05;;;;;;;6.07;3.42;;;4.00;99.90;;;;;;5070397;28;20491;-74
2022/04/03 07:47:31;;;;;;;9.40;5.50;;;4.20;99.90;;;;;;5070067;28;20020;-73
2022/04/03 07:49:58;;;;;;;8.15;4.35;;;4.30;99.90;;;;;;5071993;28;20484;-74
2022/04/03 07:52:24;;;;;;;5.75;3.67;;;4.60;99.90;;;;;;5070213;28;20021;-74
2022/04/03 07:54:49;;;;;;;3.17;2.88;;;4.60;99.90;;;;;;5070308;28;20020;-73
2022/04/03 07:57:19;;;;;;;4.05;3.47;;;4.80;99.90;;;;;;5070773;28;20120;-73
2022/04/03 07:59:45;;;;;;;4.47;3.55;;;4.90;99.90;;;;;;5072575;28;20050;-74
2022/04/03 08:02:11;;;;;;;7.20;2.75;;;5.00;99.90;;;;;;5071675;28;20036;-74
2022/04/03 08:04:36;;;;;;;4.68;2.45;;;5.00;99.90;;;;;;5073485;28;20101;-73
2022/04/03 08:07:02;;;;;;;5.20;2.40;;;4.90;99.90;;;;;;5085106;28;20020;-74
2022/04/03 08:09:28;;;;;;;2.80;1.83;;;4.80;99.90;;;;;;5073811;28;20041;-73
2022/04/03 08:11:54;;;;;;;2.30;1.88;;;4.90;99.90;;;;;;5070040;28;20496;-73
2022/04/03 08:14:19;;;;;;;3.35;2.25;;;4.90;99.90;;;;;;5071278;28;20052;-73
2022/04/03 08:16:45;;;;;;;3.85;2.00;;;5.00;99.90;;;;;;5071524;28;20013;-74
2022/04/03 08:19:11;;;;;;;3.20;2.00;;;5.10;99.90;;;;;;5070340;28;20074;-73
2022/04/03 08:21:39;;;;;;;1.50;1.20;;;5.40;99.90;;;;;;5071796;28;20020;-74
2022/04/03 08:24:05;;;;;;;1.10;1.00;;;5.70;99.90;;;;;;5071151;28;20027;-73
2022/04/03 08:26:31;;;;;;;3.05;1.42;;;5.80;99.90;;;;;;5071456;28;20392;-74
2022/04/03 08:28:56;;;;;;;2.33;1.10;;;6.00;99.90;;;;;;5071570;28;20029;-74
2022/04/03 08:31:23;;;;;;;1.70;1.00;;;6.20;99.90;;;;;;5070595;28;20601;-74
2022/04/03 08:33:49;;;;;;;3.95;1.48;;;6.50;99.90;;;;;;5071653;28;20051;-75
2022/04/03 08:36:16;;;;;;;1.70;1.50;;;6.70;99.90;;;;;;5071777;28;20025;-76
2022/04/03 08:38:42;;;;;;;3.08;1.70;;;6.80;99.90;;;;;;5071110;28;20035;-74
2022/04/03 08:41:08;;;;;;;4.10;1.77;;;6.80;99.90;;;;;;5072007;28;20055;-75
2022/04/03 08:43:34;;;;;;;3.50;2.08;;;6.90;99.90;;;;;;5074615;28;20032;-73
2022/04/03 08:46:01;;;;;;;4.78;1.63;;;6.90;99.90;;;;;;5087352;28;20019;-74
2022/04/03 08:48:31;;;;;;;1.20;1.10;;;7.00;99.90;;;;;;5109476;28;20614;-74
2022/04/03 08:50:58;;;;;;;3.53;1.25;;;7.00;99.90;;;;;;5110406;28;20514;-74
2022/04/03 08:53:26;;;;;;;3.03;1.25;;;7.00;99.90;;;;;;5099030;28;20050;-74
2022/04/03 08:55:52;;;;;;;1.27;1.10;;;7.00;99.90;;;;;;5081075;28;20024;-74
2022/04/03 08:58:18;;;;;;;2.25;1.23;;;7.10;99.90;;;;;;5082135;28;20039;-74
2022/04/03 09:00:44;;;;;;;2.20;1.30;;;7.20;99.90;;;;;;5086002;28;20035;-73
2022/04/03 09:03:12;;;;;;;5.25;1.80;;;7.30;99.90;;;;;;5084102;28;20031;-73
2022/04/03 09:05:38;;;;;;;1.13;1.02;;;7.40;99.90;;;;;;5083345;28;20038;-73
2022/04/03 09:08:05;;;;;;;1.30;1.15;;;7.40;99.90;;;;;;5082819;28;20123;-73
2022/04/03 09:10:31;;;;;;;2.30;1.40;;;7.40;99.90;;;;;;5079620;28;20320;-75
2022/04/03 09:12:57;;;;;;;1.65;1.23;;;7.50;99.90;;;;;;5074118;28;20054;-74
2022/04/03 09:15:24;;;;;;;3.50;1.23;;;7.50;99.90;;;;;;5074833;28;20028;-74
2022/04/03 09:17:54;;;;;;;3.30;1.38;;;7.50;99.90;;;;;;5079791;28;20021;-74
2022/04/03 09:20:22;;;;;;;5.50;1.35;;;7.50;99.90;;;;;;5086367;28;20052;-73
2022/04/03 09:22:53;;;;;;;1.83;1.13;;;7.60;99.90;;;;;;5085107;28;20028;-74
2022/04/03 09:25:27;;;;;;;1.17;0.57;;;7.60;99.90;;;;;;5088438;28;20025;-74
2022/04/03 09:27:59;;;;;;;10.05;1.15;;;7.60;99.90;;;;;;5086710;28;20034;-73
2022/04/03 09:30:39;;;;;;;1.88;0.85;;;7.70;99.90;;;;;;5091062;28;20030;-74
2022/04/03 09:33:09;;;;;;;1.02;0.80;;;7.80;99.90;;;;;;5075710;28;20046;-74
2022/04/03 09:35:53;;;;;;;;;;;7.80;99.90;;;;;;5086462;28;20537;-74
2022/04/03 09:38:22;;;;;;;3.55;1.10;;;7.80;99.90;;;;;;5074907;28;20366;-73
2022/04/03 09:40:50;;;;;;;4.35;1.10;;;7.80;99.90;;;;;;5078754;28;20475;-73
2022/04/03 09:43:20;;;;;;;1.25;0.90;;;7.70;99.90;;;;;;5088871;28;20058;-73
2022/04/03 09:45:47;;;;;;;1.60;0.70;;;7.70;99.90;;;;;;5075429;28;20107;-73
2022/04/03 09:48:23;;;;;;;1.75;0.80;;;7.50;99.90;;;;;;5074396;28;20375;-74
2022/04/03 09:51:06;;;;;;;3.50;1.50;;;7.40;99.90;;;;;;5090836;28;20052;-74
2022/04/03 09:53:49;;;;;;;0.65;0.65;;;6.80;99.90;;;;;;5087006;28;20028;-72
2022/04/03 09:56:37;;;;;;;4.05;0.95;;;6.30;99.90;;;;;;5086233;28;20024;-73
2022/04/03 09:59:08;;;;;;;4.78;1.05;;;6.00;99.90;;;;;;5068425;28;20638;-74
2022/04/03 10:01:41;;;;;;;1.17;0.75;;;5.90;99.90;;;;;;5074329;28;20047;-73
2022/04/03 10:04:07;;;;;;;4.10;1.05;;;5.90;99.90;;;;;;5073432;28;20189;-74
2022/04/03 10:06:34;;;;;;;1.13;0.80;;;5.80;99.90;;;;;;5077505;28;20454;-72
2022/04/03 10:09:01;;;;;;;1.27;0.70;;;5.80;99.90;;;;;;5083234;28;20040;-73
2022/04/03 10:11:27;;;;;;;6.82;0.90;;;5.90;99.90;;;;;;5078011;28;20383;-75
2022/04/03 10:13:53;;;;;;;5.43;0.98;;;6.00;99.90;;;;;;5082733;28;20058;-74
2022/04/03 10:16:20;;;;;;;3.70;0.60;;;6.20;99.90;;;;;;5075145;28;20538;-74
2022/04/03 10:18:46;;;;;;;2.83;0.90;;;6.40;99.90;;;;;;5081128;28;20106;-74
2022/04/03 10:21:28;;;;;;;1.75;0.80;;;6.70;99.90;;;;;;5085660;28;20036;-75
2022/04/03 10:23:58;;;;;;;3.10;1.35;;;6.90;99.90;;;;;;5080175;28;20028;-74
2022/04/03 10:26:24;;;;;;;1.33;0.73;;;7.00;99.90;;;;;;5086011;28;20032;-74
2022/04/03 10:28:56;;;;;;;5.18;0.70;;;7.00;99.90;;;;;;5078635;28;20044;-74
2022/04/03 10:31:22;;;;;;;2.95;0.88;;;7.00;99.90;;;;;;5092842;28;20464;-74
2022/04/03 10:33:50;;;;;;;4.68;0.80;;;7.00;99.90;;;;;;5083552;28;20097;-74
2022/04/03 10:36:24;;;;;;;2.25;1.52;;;7.00;99.90;;;;;;5076734;28;20027;-73
2022/04/03 10:39:05;;;;;;;1.98;0.80;;;7.10;99.90;;;;;;5080212;28;20031;-76
2022/04/03 10:41:36;;;;;;;2.03;0.80;;;7.10;99.90;;;;;;5090896;28;20051;-73
2022/04/03 10:44:13;;;;;;;;;;;7.10;99.90;;;;;;5074194;28;20028;-73
2022/04/03 10:47:04;;;;;;;4.18;0.90;;;7.00;99.90;;;;;;5079006;28;20391;-74
2022/04/03 10:49:48;;;;;;;4.20;0.93;;;6.90;99.90;;;;;;5076975;28;20216;-75
2022/04/03 10:52:17;;;;;;;3.35;0.70;;;6.90;99.90;;;;;;5077768;28;20111;-75
2022/04/03 10:54:49;;;;;;;1.80;0.82;;;7.00;99.90;;;;;;5078788;28;20441;-73
2022/04/03 10:57:50;;;;;;;6.13;0.93;;;7.10;99.90;;;;;;5073857;28;20039;-75
2022/04/03 11:00:16;;;;;;;0.57;0.50;;;7.40;99.90;;;;;;5028670;28;20025;-72
2022/04/03 11:02:42;;;;;;;1.73;0.75;;;7.70;99.90;;;;;;5080506;28;20043;-74
2022/04/03 11:05:25;;;;;;;1.95;0.75;;;7.90;99.90;;;;;;5092657;28;20387;-73
2022/04/03 11:08:17;;;;;;;1.65;0.40;;;8.10;99.90;;;;;;5092167;28;20490;-73
2022/04/03 11:10:49;;;;;;;5.63;1.55;;;8.00;99.90;;;;;;5092368;28;20040;-74
2022/04/03 11:13:23;;;;;;;0.60;0.60;;;8.50;99.90;;;;;;5092152;28;20039;-74
2022/04/03 11:15:55;;;;;;;1.48;0.52;;;7.80;99.90;;;;;;5092071;28;20487;-74
2022/04/03 11:18:35;;;;;;;3.65;0.70;;;7.70;99.90;;;;;;5092068;28;20111;-73
2022/04/03 11:21:14;;;;;;;2.75;0.85;;;7.60;99.90;;;;;;5092062;28;20024;-74
2022/04/03 11:24:04;;;;;;;1.55;0.70;;;7.60;99.90;;;;;;5076393;28;20035;-74
2022/04/03 11:26:33;;;;;;;0.63;0.50;;;7.50;99.90;;;;;;5073935;28;20570;-74
2022/04/03 11:28:59;;;;;;;3.33;0.68;;;7.40;99.90;;;;;;5085395;28;20174;-74
2022/04/03 11:31:25;;;;;;;3.80;0.60;;;7.40;99.90;;;;;;5089575;28;20035;-74
2022/04/03 11:33:51;;;;;;;0.52;0.50;;;7.30;99.90;;;;;;5093067;28;20032;-74
2022/04/03 11:36:24;;;;;;;4.18;0.80;;;7.40;99.90;;;;;;5092123;28;20028;-74
2022/04/03 11:38:51;;;;;;;2.58;0.70;;;7.40;99.90;;;;;;5092944;28;20028;-74
2022/04/03 11:41:27;;;;;;;0.98;0.40;;;7.40;99.90;;;;;;5091798;28;20044;-74
2022/04/03 11:44:03;;;;;;;0.98;0.45;;;7.40;99.90;;;;;;5093830;28;20032;-74
2022/04/03 11:46:50;;;;;;;0.90;0.60;;;7.40;99.90;;;;;;5092649;28;20539;-74
2022/04/03 11:49:22;;;;;;;0.70;0.43;;;7.30;99.90;;;;;;5096727;28;20032;-74
2022/04/03 11:51:53;;;;;;;4.85;2.08;;;7.30;99.90;;;;;;5092851;28;20114;-73
2022/04/03 11:54:18;;;;;;;5.40;1.25;;;7.20;99.90;;;;;;5091916;28;20050;-74
2022/04/03 11:56:44;;;;;;;0.68;0.40;;;7.10;99.90;;;;;;5091807;28;20024;-73
2022/04/03 11:59:10;;;;;;;0.82;0.60;;;7.00;99.90;;;;;;5092467;28;20039;-74
2022/04/03 12:01:38;;;;;;;0.98;0.80;;;7.00;99.90;;;;;;5092309;28;20024;-73
2022/04/03 12:04:13;;;;;;;2.90;0.70;;;7.00;99.90;;;;;;5091688;28;20388;-73
2022/04/03 12:06:40;;;;;;;1.40;0.82;;;6.90;99.90;;;;;;5092386;28;20052;-73
2022/04/03 12:09:08;;;;;;;2.33;0.80;;;6.80;99.90;;;;;;5091869;28;20050;-73
2022/04/03 12:11:35;;;;;;;3.15;1.65;;;6.80;99.90;;;;;;5092409;28;20024;-74
2022/04/03 12:14:05;;;;;;;2.00;0.90;;;6.70;99.90;;;;;;5092161;28;20048;-73
2022/04/03 12:16:36;;;;;;;1.48;0.77;;;6.70;99.90;;;;;;5091362;28;20044;-74
2022/04/03 12:19:08;;;;;;;1.95;0.57;;;6.60;99.90;;;;;;5092426;28;20024;-73
2022/04/03 12:21:43;;;;;;;0.82;0.80;;;6.60;99.90;;;;;;5092546;28;20384;-73
2022/04/03 12:24:13;;;;;;;2.92;0.85;;;6.50;99.90;;;;;;5091198;28;20078;-73
2022/04/03 12:26:43;;;;;;;3.03;1.30;;;6.40;99.90;;;;;;5092126;28;20391;-73
2022/04/03 12:29:09;;;;;;;3.20;1.30;;;6.40;99.90;;;;;;5091690;28;20032;-74
2022/04/03 12:31:35;;;;;;;4.97;1.40;;;6.30;99.90;;;;;;5072038;28;20039;-75
2022/04/03 12:34:16;;;;;;;3.17;1.23;;;6.40;99.90;;;;;;5076857;28;20020;-74
2022/04/03 12:36:48;;;;;;;3.22;1.15;;;6.40;99.90;;;;;;5071167;28;20044;-74
2022/04/03 12:39:30;;;;;;;1.67;1.40;;;6.50;99.90;;;;;;5076840;28;20055;-74
2022/04/03 12:42:07;;;;;;;6.10;2.08;;;6.50;99.90;;;;;;5073138;28;20020;-73
2022/04/03 12:44:32;;;;;;;3.05;0.90;;;6.50;99.90;;;;;;5074715;28;20025;-73
2022/04/03 12:46:58;;;;;;;1.60;1.10;;;6.60;99.90;;;;;;5075215;28;20040;-73
2022/04/03 12:49:23;;;;;;;2.90;1.00;;;6.70;99.90;;;;;;5074641;28;20032;-74
2022/04/03 12:51:49;;;;;;;2.47;0.98;;;6.80;99.90;;;;;;5074507;28;20016;-74
2022/04/03 12:54:15;;;;;;;3.42;1.05;;;7.00;99.90;;;;;;5074583;28;20044;-74
2022/04/03 12:59:38;;;;;;;8.27;1.15;;;7.30;99.90;;;;;;5073861;28;20078;-73
2022/04/03 13:02:06;;;;;;;3.75;1.42;;;7.40;99.90;;;;;;5075684;28;20395;-74
2022/04/03 13:04:31;;;;;;;3.53;1.30;;;7.40;99.90;;;;;;5075564;28;20048;-73